Terminal Aerodrome Forecast
Issued by NWS

Home | Current Version | Previous Version | Text Only | Print | Product List | Glossary On
Versions: 1 2 3 4 5 6 7 8 9 10 11
000
FTUS45 KREV 130520
TAFCXP
TAF
KCXP 130520Z 1306/1406 VRB03KT P6SM SKC
     FM132000 08010KT P6SM FEW200
     FM140100 VRB02KT P6SM SKC=

USA.gov is the U.S. government's official web portal to all federal, state and local government web resources and services.